createdAt,value
2022-09-25T00:00:33.765Z,27.33
2022-09-25T00:03:00.292Z,21.17
2022-09-25T00:05:26.841Z,21.35
2022-09-25T00:07:53.558Z,25.77
2022-09-25T00:10:20.108Z,21.80
2022-09-25T00:12:46.615Z,29.15
2022-09-25T00:15:13.062Z,20.92
2022-09-25T00:17:39.664Z,24.30
2022-09-25T00:20:06.687Z,25.35
2022-09-25T00:22:33.161Z,24.60
2022-09-25T00:25:00.425Z,26.52
2022-09-25T00:27:27.467Z,25.05
2022-09-25T00:29:53.991Z,26.48
2022-09-25T00:32:20.615Z,24.63
2022-09-25T00:34:47.229Z,24.92
2022-09-25T00:37:13.710Z,24.42
2022-09-25T00:39:40.318Z,22.80
2022-09-25T00:42:06.820Z,22.77
2022-09-25T00:44:57.662Z,23.95
2022-09-25T00:47:49.078Z,20.85
2022-09-25T00:50:38.431Z,27.08
2022-09-25T00:53:33.151Z,25.20
2022-09-25T00:56:01.014Z,22.05
2022-09-25T00:58:31.775Z,20.90
2022-09-25T01:00:59.221Z,25.55
2022-09-25T01:03:27.402Z,24.90
2022-09-25T01:05:55.488Z,28.08
2022-09-25T01:08:25.738Z,21.23
2022-09-25T01:10:52.550Z,21.55
2022-09-25T01:13:19.832Z,23.08
2022-09-25T01:16:09.869Z,27.80
2022-09-25T01:19:14.687Z,23.13
2022-09-25T01:21:55.715Z,19.15
2022-09-25T01:24:53.268Z,23.67
2022-09-25T01:27:35.727Z,20.83
2022-09-25T01:30:10.262Z,16.70
2022-09-25T01:32:49.432Z,18.10
2022-09-25T01:35:33.804Z,20.42
2022-09-25T01:38:22.980Z,22.73
2022-09-25T01:41:13.984Z,20.75
2022-09-25T01:43:53.082Z,20.02
2022-09-25T01:46:27.847Z,21.23
2022-09-25T01:49:01.861Z,19.50
2022-09-25T01:51:42.206Z,20.88
2022-09-25T01:54:17.180Z,19.35
2022-09-25T01:56:57.418Z,20.98
2022-09-25T01:59:39.237Z,23.67
2022-09-25T02:02:10.335Z,21.65
2022-09-25T02:05:00.217Z,20.27
2022-09-25T02:07:31.905Z,21.23
2022-09-25T02:10:05.135Z,20.42
2022-09-25T02:12:37.038Z,21.30
2022-09-25T02:15:26.570Z,17.75
2022-09-25T02:18:19.036Z,21.67
2022-09-25T02:20:53.700Z,22.35
2022-09-25T02:23:28.738Z,22.77
2022-09-25T02:26:09.547Z,18.27
2022-09-25T02:28:36.315Z,18.80
2022-09-25T02:31:07.325Z,18.02
2022-09-25T02:33:35.226Z,21.02
2022-09-25T02:36:04.475Z,17.73
2022-09-25T02:38:33.619Z,18.40
2022-09-25T02:41:25.007Z,14.88
2022-09-25T02:43:55.978Z,16.58
2022-09-25T02:46:34.102Z,17.50
2022-09-25T02:49:40.225Z,13.80
2022-09-25T02:52:12.017Z,15.73
2022-09-25T02:54:45.867Z,14.60
2022-09-25T02:57:44.378Z,15.20
2022-09-25T03:00:12.882Z,14.63
2022-09-25T03:02:41.091Z,16.90
2022-09-25T03:05:11.888Z,15.18
2022-09-25T03:07:57.704Z,15.18
2022-09-25T03:10:24.847Z,17.63
2022-09-25T03:12:54.210Z,15.77
2022-09-25T03:15:23.776Z,15.25
2022-09-25T03:17:52.227Z,14.18
2022-09-25T03:20:18.807Z,12.13
2022-09-25T03:22:45.266Z,16.52
2022-09-25T03:25:11.728Z,14.38
2022-09-25T03:27:41.012Z,13.10
2022-09-25T03:30:08.087Z,13.60
2022-09-25T03:32:34.657Z,14.27
2022-09-25T03:35:01.124Z,16.50
2022-09-25T03:37:27.576Z,15.18
2022-09-25T03:39:54.021Z,13.85
2022-09-25T03:42:20.530Z,12.07
2022-09-25T03:44:47.023Z,13.57
2022-09-25T03:47:13.519Z,13.95
2022-09-25T03:49:39.984Z,13.13
2022-09-25T03:52:06.771Z,12.68
2022-09-25T03:54:33.387Z,12.32
2022-09-25T03:56:59.848Z,12.43
2022-09-25T03:59:26.889Z,12.50
2022-09-25T04:01:53.380Z,13.25
2022-09-25T04:04:19.874Z,11.30
2022-09-25T04:06:46.410Z,12.65
2022-09-25T04:09:12.921Z,12.00
2022-09-25T04:11:39.436Z,10.43
2022-09-25T04:14:06.499Z,11.55
2022-09-25T04:16:33.102Z,14.30
2022-09-25T04:18:59.649Z,14.50
2022-09-25T04:21:26.214Z,12.07
2022-09-25T04:24:11.384Z,11.90
2022-09-25T04:26:37.859Z,12.55
2022-09-25T04:29:04.765Z,10.80
2022-09-25T04:31:31.616Z,12.88
2022-09-25T04:33:58.244Z,12.40
2022-09-25T04:36:24.752Z,12.18
2022-09-25T04:38:51.253Z,11.10
2022-09-25T04:41:19.930Z,13.82
2022-09-25T04:43:46.555Z,13.20
2022-09-25T04:46:20.073Z,13.02
2022-09-25T04:48:48.256Z,15.65
2022-09-25T04:51:14.753Z,14.02
2022-09-25T04:53:41.491Z,13.35
2022-09-25T04:56:14.654Z,15.18
2022-09-25T04:58:47.358Z,12.93
2022-09-25T05:01:14.051Z,13.48
2022-09-25T05:03:40.627Z,16.35
2022-09-25T05:06:07.265Z,15.10
2022-09-25T05:08:33.814Z,15.90
2022-09-25T05:11:00.453Z,17.20
2022-09-25T05:13:28.100Z,18.80
2022-09-25T05:15:55.228Z,18.08
2022-09-25T05:18:24.090Z,16.88
2022-09-25T05:20:53.395Z,19.45
2022-09-25T05:23:20.857Z,20.58
2022-09-25T05:25:55.112Z,24.52
2022-09-25T05:28:23.433Z,26.27
2022-09-25T05:30:50.555Z,24.85
2022-09-25T05:33:18.119Z,24.90
2022-09-25T05:35:44.666Z,21.73
2022-09-25T05:38:12.284Z,23.67
2022-09-25T05:40:41.860Z,27.50
2022-09-25T05:43:08.746Z,24.92
2022-09-25T05:45:35.910Z,23.10
2022-09-25T05:48:07.945Z,22.77
2022-09-25T05:50:34.795Z,26.95
2022-09-25T05:53:03.964Z,21.27
2022-09-25T05:55:30.940Z,26.60
2022-09-25T05:58:04.084Z,27.13
2022-09-25T06:00:33.097Z,23.65
2022-09-25T06:03:00.930Z,24.00
2022-09-25T06:05:27.583Z,28.73
2022-09-25T06:07:54.962Z,25.13
2022-09-25T06:10:22.354Z,24.30
2022-09-25T06:12:48.819Z,23.45
2022-09-25T06:15:15.396Z,22.10
2022-09-25T06:17:41.923Z,22.63
2022-09-25T06:20:12.159Z,27.92
2022-09-25T06:22:44.164Z,23.27
2022-09-25T06:25:10.939Z,23.02
2022-09-25T06:27:37.565Z,22.45
2022-09-25T06:30:05.801Z,23.38
2022-09-25T06:32:32.311Z,21.48
2022-09-25T06:34:58.851Z,23.10
2022-09-25T06:37:25.328Z,21.77
2022-09-25T06:39:51.804Z,20.58
2022-09-25T06:42:18.296Z,24.90
2022-09-25T06:44:44.763Z,25.02
2022-09-25T06:47:17.707Z,22.73
2022-09-25T06:49:46.198Z,24.05
2022-09-25T06:52:12.834Z,25.02
2022-09-25T06:54:43.829Z,23.40
2022-09-25T06:57:12.716Z,22.90
2022-09-25T06:59:39.484Z,20.55
2022-09-25T07:02:25.408Z,24.65
2022-09-25T07:04:52.137Z,21.10
2022-09-25T07:07:22.113Z,20.05
2022-09-25T07:09:48.578Z,20.52
2022-09-25T07:12:17.075Z,23.13
2022-09-25T07:14:44.626Z,29.15
2022-09-25T07:17:11.073Z,27.25
2022-09-25T07:19:37.518Z,27.00
2022-09-25T07:22:04.905Z,27.48
2022-09-25T07:24:31.430Z,28.58
2022-09-25T07:26:57.895Z,29.80
2022-09-25T07:29:24.971Z,28.35
2022-09-25T07:31:51.443Z,21.38
2022-09-25T07:34:17.870Z,19.27
2022-09-25T07:36:44.510Z,20.38
2022-09-25T07:39:14.752Z,19.55
2022-09-25T07:41:44.098Z,19.50
2022-09-25T07:46:57.523Z,18.20
2022-09-25T07:49:24.010Z,18.40
2022-09-25T07:51:50.464Z,18.17
2022-09-25T07:54:16.935Z,17.17
2022-09-25T07:56:43.372Z,17.67
2022-09-25T07:59:10.078Z,20.40
2022-09-25T08:01:42.574Z,19.15
2022-09-25T08:04:10.585Z,20.08
2022-09-25T08:06:38.269Z,21.20
2022-09-25T08:09:09.639Z,18.92
2022-09-25T08:11:37.309Z,20.23
2022-09-25T08:14:03.895Z,19.80
2022-09-25T08:16:30.399Z,18.70
2022-09-25T08:18:56.866Z,18.73
2022-09-25T08:21:23.320Z,16.58
2022-09-25T08:23:52.298Z,19.30
2022-09-25T08:26:23.249Z,18.23
2022-09-25T08:28:50.826Z,17.98
2022-09-25T08:31:18.232Z,15.82
2022-09-25T08:33:46.601Z,18.60
2022-09-25T08:36:13.800Z,20.50
2022-09-25T08:38:40.379Z,21.52
2022-09-25T08:41:16.337Z,21.30
2022-09-25T08:44:09.934Z,18.92
2022-09-25T08:47:01.533Z,20.70
2022-09-25T08:49:39.975Z,19.70
2022-09-25T08:52:11.227Z,20.77
2022-09-25T08:54:42.080Z,18.17
2022-09-25T08:57:44.025Z,18.10
2022-09-25T09:00:18.563Z,17.25
2022-09-25T09:02:48.103Z,21.63
2022-09-25T09:05:28.942Z,19.77
2022-09-25T09:08:09.158Z,18.65
2022-09-25T09:10:51.259Z,17.60
2022-09-25T09:13:44.346Z,17.38
2022-09-25T09:16:19.135Z,16.95
2022-09-25T09:18:45.638Z,18.85
2022-09-25T09:21:36.854Z,17.75
2022-09-25T09:24:52.905Z,17.70
2022-09-25T09:27:31.202Z,18.02
2022-09-25T09:30:22.152Z,16.63
2022-09-25T09:33:25.837Z,17.17
2022-09-25T09:36:23.134Z,16.27
2022-09-25T09:38:58.699Z,15.95
2022-09-25T09:41:44.029Z,15.57
2022-09-25T09:44:24.491Z,18.33
2022-09-25T09:46:50.911Z,17.25
2022-09-25T09:49:29.853Z,17.08
2022-09-25T09:52:10.999Z,17.00
2022-09-25T09:54:49.824Z,15.73
2022-09-25T09:57:27.207Z,15.05
2022-09-25T10:00:04.905Z,16.67
2022-09-25T10:02:40.285Z,15.05
2022-09-25T10:05:17.657Z,14.43
2022-09-25T10:07:46.639Z,13.57
2022-09-25T10:10:15.134Z,13.65
2022-09-25T10:12:50.948Z,13.77
2022-09-25T10:15:29.061Z,13.60
2022-09-25T10:17:59.983Z,14.18
2022-09-25T10:20:35.815Z,14.32
2022-09-25T10:23:04.732Z,14.60
2022-09-25T10:25:39.777Z,14.23
2022-09-25T10:28:35.929Z,14.10
2022-09-25T10:31:07.164Z,14.40
2022-09-25T10:33:33.646Z,13.90
2022-09-25T10:36:00.290Z,13.57
2022-09-25T10:38:46.948Z,13.23
2022-09-25T10:41:17.372Z,13.80
2022-09-25T10:44:01.340Z,14.82
2022-09-25T10:46:50.848Z,14.88
2022-09-25T10:49:42.394Z,14.38
2022-09-25T10:52:13.202Z,14.00
2022-09-25T10:54:44.741Z,13.57
2022-09-25T10:57:34.720Z,13.38
2022-09-25T11:00:04.036Z,12.48
2022-09-25T11:02:39.060Z,11.88
2022-09-25T11:05:08.610Z,11.90
2022-09-25T11:07:35.090Z,11.20
2022-09-25T11:10:01.706Z,11.05
2022-09-25T11:12:29.889Z,10.52
2022-09-25T11:15:02.300Z,10.40
2022-09-25T11:17:39.151Z,11.60
2022-09-25T11:20:31.681Z,12.73
2022-09-25T11:23:16.302Z,13.25
2022-09-25T11:25:48.533Z,11.75
2022-09-25T11:28:25.044Z,12.88
2022-09-25T11:31:00.365Z,10.98
2022-09-25T11:33:34.847Z,10.77
2022-09-25T11:36:18.675Z,11.93
2022-09-25T11:42:05.616Z,11.38
2022-09-25T11:44:40.075Z,10.73
2022-09-25T11:47:18.880Z,10.20
2022-09-25T11:49:51.363Z,10.52
2022-09-25T11:52:40.035Z,10.63
2022-09-25T11:55:15.675Z,10.05
2022-09-25T11:57:51.667Z,9.63
2022-09-25T12:00:22.185Z,9.00
2022-09-25T12:02:54.627Z,9.27
2022-09-25T12:05:49.257Z,10.02
2022-09-25T12:08:50.705Z,9.40
2022-09-25T12:11:43.265Z,11.70
2022-09-25T12:14:33.767Z,9.20
2022-09-25T12:17:13.366Z,9.48
2022-09-25T12:19:58.053Z,16.20
2022-09-25T12:22:51.685Z,9.18
2022-09-25T12:25:36.491Z,8.95
2022-09-25T12:28:24.137Z,9.95
2022-09-25T12:30:57.134Z,9.65
2022-09-25T12:34:01.055Z,8.18
2022-09-25T12:36:36.436Z,8.88
2022-09-25T12:39:08.997Z,8.50
2022-09-25T12:41:48.005Z,11.15
2022-09-25T12:44:27.557Z,10.68
2022-09-25T12:47:01.885Z,18.17
2022-09-25T12:49:31.667Z,9.68
2022-09-25T12:52:20.497Z,18.33
2022-09-25T12:54:57.893Z,9.20
2022-09-25T12:57:41.659Z,9.52
2022-09-25T13:03:04.115Z,9.73
2022-09-25T13:05:53.281Z,8.30
2022-09-25T13:08:39.584Z,11.27
2022-09-25T13:11:16.511Z,6.97
2022-09-25T13:13:48.240Z,7.13
2022-09-25T13:16:16.173Z,7.07
2022-09-25T13:19:26.932Z,6.82
2022-09-25T13:22:10.222Z,6.65
2022-09-25T13:24:45.828Z,6.57
2022-09-25T13:27:18.985Z,7.10
2022-09-25T13:29:53.254Z,6.97
2022-09-25T13:32:23.277Z,6.75
2022-09-25T13:34:56.329Z,7.13
2022-09-25T13:37:27.949Z,7.05
2022-09-25T13:40:13.063Z,7.25
2022-09-25T13:42:45.472Z,6.47
2022-09-25T13:45:33.394Z,6.40
2022-09-25T13:48:10.435Z,6.80
2022-09-25T13:50:42.761Z,6.28
2022-09-25T13:53:18.246Z,6.18
2022-09-25T13:55:51.051Z,6.72
2022-09-25T13:58:19.255Z,6.63
2022-09-25T14:00:55.489Z,6.00
2022-09-25T14:03:44.566Z,5.68
2022-09-25T14:06:13.845Z,5.80
2022-09-25T14:08:42.794Z,5.93
2022-09-25T14:11:12.390Z,5.90
2022-09-25T14:13:46.557Z,5.78
2022-09-25T14:16:31.036Z,5.95
2022-09-25T14:18:58.890Z,6.50
2022-09-25T14:21:28.774Z,5.90
2022-09-25T14:23:57.738Z,5.70
2022-09-25T14:26:26.429Z,6.35
2022-09-25T14:28:55.721Z,5.88
2022-09-25T14:31:31.758Z,6.28
2022-09-25T14:34:07.161Z,7.85
2022-09-25T14:36:53.526Z,11.77
2022-09-25T14:39:38.382Z,7.13
2022-09-25T14:42:25.547Z,6.00
2022-09-25T14:45:13.914Z,5.60
2022-09-25T14:47:43.519Z,6.45
2022-09-25T14:50:25.218Z,5.93
2022-09-25T14:52:57.236Z,5.88
2022-09-25T14:55:26.845Z,5.78
2022-09-25T14:57:53.727Z,5.00
2022-09-25T15:00:24.297Z,5.40
2022-09-25T15:02:56.492Z,5.47
2022-09-25T15:05:24.071Z,5.60
2022-09-25T15:07:50.848Z,5.00
2022-09-25T15:10:33.816Z,4.97
2022-09-25T15:13:13.390Z,5.07
2022-09-25T15:15:40.470Z,5.32
2022-09-25T15:18:13.711Z,5.22
2022-09-25T15:20:47.167Z,5.40
2022-09-25T15:23:18.687Z,6.10
2022-09-25T15:25:51.480Z,5.60
2022-09-25T15:28:25.296Z,5.50
2022-09-25T15:31:00.481Z,4.70
2022-09-25T15:33:29.684Z,5.57
2022-09-25T15:36:01.683Z,5.30
2022-09-25T15:38:33.497Z,8.70
2022-09-25T15:41:00.674Z,10.07
2022-09-25T15:43:27.372Z,8.52
2022-09-25T15:46:18.127Z,6.68
2022-09-25T15:48:59.183Z,5.78
2022-09-25T15:51:30.447Z,5.70
2022-09-25T15:54:00.119Z,7.88
2022-09-25T15:56:30.083Z,8.43
2022-09-25T15:59:01.944Z,7.57
2022-09-25T16:01:51.049Z,8.23
2022-09-25T16:04:58.772Z,7.72
2022-09-25T16:07:34.331Z,6.40
2022-09-25T16:10:29.528Z,6.65
2022-09-25T16:12:56.004Z,6.68
2022-09-25T16:15:29.677Z,6.47
2022-09-25T16:18:05.460Z,6.85
2022-09-25T16:20:40.359Z,8.68
2022-09-25T16:23:21.426Z,9.60
2022-09-25T16:25:48.006Z,8.82
2022-09-25T16:28:23.329Z,9.45
2022-09-25T16:30:56.711Z,11.68
2022-09-25T16:33:27.034Z,11.13
2022-09-25T16:36:16.103Z,7.07
2022-09-25T16:38:41.422Z,8.02
2022-09-25T16:41:22.386Z,8.52
2022-09-25T16:44:19.330Z,9.95
2022-09-25T16:47:07.675Z,10.88
2022-09-25T16:49:34.425Z,12.13
2022-09-25T16:52:05.426Z,12.13
2022-09-25T16:54:32.705Z,11.93
2022-09-25T16:57:00.265Z,10.65
2022-09-25T16:59:28.295Z,10.05
2022-09-25T17:02:01.879Z,9.35
2022-09-25T17:06:58.244Z,8.30
2022-09-25T17:09:27.338Z,7.57
2022-09-25T17:11:59.478Z,7.22
2022-09-25T17:14:28.571Z,9.00
2022-09-25T17:16:56.338Z,9.40
2022-09-25T17:19:23.427Z,9.18
2022-09-25T17:21:52.204Z,7.35
2022-09-25T17:24:25.457Z,7.00
2022-09-25T17:26:52.114Z,6.10
2022-09-25T17:29:20.494Z,7.13
2022-09-25T17:31:47.074Z,7.03
2022-09-25T17:34:17.632Z,8.07
2022-09-25T17:36:45.095Z,8.93
2022-09-25T17:39:11.618Z,9.60
2022-09-25T17:41:39.703Z,10.73
2022-09-25T17:44:08.401Z,10.25
2022-09-25T17:46:36.167Z,9.70
2022-09-25T17:49:03.703Z,8.55
2022-09-25T17:51:30.563Z,8.10
2022-09-25T17:53:57.988Z,7.40
2022-09-25T17:56:25.623Z,7.43
2022-09-25T17:58:53.095Z,7.10
2022-09-25T18:01:22.402Z,7.10
2022-09-25T18:04:00.171Z,6.88
2022-09-25T18:06:28.783Z,7.22
2022-09-25T18:08:56.190Z,7.13
2022-09-25T18:11:24.523Z,7.80
2022-09-25T18:13:56.905Z,7.88
2022-09-25T18:16:31.159Z,7.72
2022-09-25T18:19:17.186Z,8.63
2022-09-25T18:22:01.945Z,9.45
2022-09-25T18:24:28.937Z,9.32
2022-09-25T18:26:57.857Z,9.23
2022-09-25T18:29:25.206Z,9.52
2022-09-25T18:31:51.922Z,10.02
2022-09-25T18:34:18.492Z,8.63
2022-09-25T18:36:45.378Z,8.98
2022-09-25T18:39:14.899Z,8.30
2022-09-25T18:41:45.546Z,8.50
2022-09-25T18:44:13.277Z,8.73
2022-09-25T18:46:40.533Z,9.15
2022-09-25T18:49:07.237Z,9.40
2022-09-25T18:51:34.334Z,9.10
2022-09-25T18:54:01.391Z,9.65
2022-09-25T18:56:28.262Z,11.02
2022-09-25T18:58:54.754Z,12.48
2022-09-25T19:01:21.562Z,12.18
2022-09-25T19:03:53.865Z,10.40
2022-09-25T19:06:23.591Z,10.10
2022-09-25T19:08:55.746Z,9.60
2022-09-25T19:11:27.283Z,9.35
2022-09-25T19:13:54.534Z,8.98
2022-09-25T19:16:21.496Z,10.43
2022-09-25T19:18:50.072Z,9.80
2022-09-25T19:21:21.163Z,10.25
2022-09-25T19:23:49.186Z,9.98
2022-09-25T19:26:22.191Z,10.10
2022-09-25T19:28:48.966Z,10.20
2022-09-25T19:31:18.515Z,10.93
2022-09-25T19:33:45.496Z,9.82
2022-09-25T19:36:16.443Z,10.50
2022-09-25T19:38:43.621Z,10.85
2022-09-25T19:41:26.215Z,10.88
2022-09-25T19:43:54.102Z,11.05
2022-09-25T19:46:20.635Z,11.23
2022-09-25T19:48:48.615Z,10.70
2022-09-25T19:51:17.396Z,10.88
2022-09-25T19:53:44.492Z,10.80
2022-09-25T19:56:11.378Z,12.25
2022-09-25T19:58:40.934Z,11.38
2022-09-25T20:01:13.099Z,11.23
2022-09-25T20:03:41.013Z,10.57
2022-09-25T20:06:09.269Z,11.20
2022-09-25T20:08:36.406Z,11.57
2022-09-25T20:11:21.168Z,11.38
2022-09-25T20:13:49.295Z,10.85
2022-09-25T20:16:18.881Z,10.50
2022-09-25T20:18:50.162Z,10.90
2022-09-25T20:21:21.050Z,10.50
2022-09-25T20:23:56.323Z,10.35
2022-09-25T20:26:23.564Z,11.02
2022-09-25T20:29:01.169Z,9.75
2022-09-25T20:31:29.863Z,10.05
2022-09-25T20:33:56.556Z,10.32
2022-09-25T20:36:23.572Z,9.93
2022-09-25T20:38:55.117Z,9.27
2022-09-25T20:41:23.094Z,9.57
2022-09-25T20:43:51.729Z,9.63
2022-09-25T20:46:20.242Z,9.40
2022-09-25T20:48:48.986Z,9.90
2022-09-25T20:51:18.608Z,10.38
2022-09-25T20:53:50.667Z,9.90
2022-09-25T20:56:17.620Z,9.02
2022-09-25T20:58:48.356Z,9.10
2022-09-25T21:01:19.675Z,9.30
2022-09-25T21:03:47.850Z,9.45
2022-09-25T21:06:17.481Z,9.48
2022-09-25T21:08:44.055Z,9.73
2022-09-25T21:11:11.779Z,10.77
2022-09-25T21:13:39.915Z,10.02
2022-09-25T21:16:12.208Z,10.73
2022-09-25T21:18:40.692Z,10.00
2022-09-25T21:21:10.196Z,10.85
2022-09-25T21:23:37.274Z,11.30
2022-09-25T21:26:11.501Z,11.85
2022-09-25T21:28:39.895Z,11.70
2022-09-25T21:31:10.049Z,11.05
2022-09-25T21:33:37.134Z,11.18
2022-09-25T21:36:04.549Z,13.60
2022-09-25T21:38:31.548Z,12.95
2022-09-25T21:41:00.058Z,12.80
2022-09-25T21:43:27.683Z,12.18
2022-09-25T21:45:59.641Z,12.00
2022-09-25T21:48:26.657Z,12.80
2022-09-25T21:50:58.190Z,12.82
2022-09-25T21:53:25.831Z,12.63
2022-09-25T21:56:04.417Z,12.43
2022-09-25T21:58:31.608Z,13.45
2022-09-25T22:01:20.658Z,13.50
2022-09-25T22:03:49.887Z,11.60
2022-09-25T22:06:21.941Z,11.80
2022-09-25T22:08:51.820Z,12.77
2022-09-25T22:11:19.632Z,13.73
2022-09-25T22:13:47.689Z,13.50
2022-09-25T22:16:24.423Z,13.25
2022-09-25T22:18:52.504Z,12.77
2022-09-25T22:21:22.211Z,13.68
2022-09-25T22:23:48.787Z,14.05
2022-09-25T22:26:16.776Z,13.50
2022-09-25T22:28:43.652Z,12.25
2022-09-25T22:31:12.659Z,13.35
2022-09-25T22:33:39.887Z,13.95
2022-09-25T22:36:08.284Z,13.60
2022-09-25T22:38:35.423Z,13.02
2022-09-25T22:41:04.451Z,13.75
2022-09-25T22:43:31.346Z,13.57
2022-09-25T22:45:58.318Z,13.52
2022-09-25T22:48:24.965Z,13.07
2022-09-25T22:51:03.795Z,13.20
2022-09-25T22:53:31.930Z,13.95
2022-09-25T22:56:32.238Z,13.52
2022-09-25T22:59:04.491Z,13.38
2022-09-25T23:01:31.076Z,13.57
2022-09-25T23:04:00.091Z,14.02
2022-09-25T23:06:27.982Z,14.43
2022-09-25T23:08:56.443Z,14.07
2022-09-25T23:11:23.999Z,14.95
2022-09-25T23:13:56.908Z,14.27
2022-09-25T23:16:23.860Z,15.32
2022-09-25T23:18:50.392Z,14.20
2022-09-25T23:21:16.886Z,13.82
2022-09-25T23:23:43.503Z,14.05
2022-09-25T23:26:10.017Z,14.10
2022-09-25T23:28:38.916Z,14.07
2022-09-25T23:31:16.262Z,13.73
2022-09-25T23:33:43.856Z,13.68
2022-09-25T23:36:13.864Z,13.52
2022-09-25T23:38:40.324Z,13.02
2022-09-25T23:41:18.052Z,12.68
2022-09-25T23:43:46.046Z,12.45
2022-09-25T23:46:14.134Z,12.73
2022-09-25T23:48:41.409Z,13.23
2022-09-25T23:51:08.101Z,12.30
2022-09-25T23:53:35.423Z,12.38
2022-09-25T23:56:10.075Z,12.80
2022-09-25T23:58:36.610Z,12.50
